Terminal Aerodrome Forecast
Issued by NWS

Home | Current Version | Previous Version | Text Only | Print | Product List | Glossary On
Versions: 1 2 3 4 5 6 7 8 9 10 11 12 13 14 15 16 17 18 19 20 21 22 23 24 25
000
FTUS46 KLOX 191100
TAFLAX
TAF
KLAX 191135Z 1912/2018 27006KT P6SM BKN016
     FM191600 23006KT P6SM BKN022
     FM192000 25012KT P6SM SCT025
     FM200300 26008KT P6SM OVC020
     FM200900 VRB03KT P6SM OVC015
     FM201700 25006KT P6SM BKN022=

USA.gov is the U.S. government's official web portal to all federal, state and local government web resources and services.